Data for 11/08/2007

Time Sea-Level Adjusted Pressure Absolute Pressure Temperature Relative Humidity Dew Point   
(mb) (inHg) (mb) (inHg) (C) (F) (%) (C) (F)
00:05 1018 30.06 847 25.01 11.1 52 24 -8.9 16
00:10 1018 30.06 847 25.01 11.1 52 24 -9 15.8
00:15 1018 30.06 847 25.01 11 51.8 23 -9.5 14.8
00:20 1018 30.06 847 25.01 11.1 51.9 22 -9.9 14.3
00:25 1018 30.06 847 25.01 11.3 52.3 23 -9 15.7
00:30 1018 30.06 847 25.01 11.2 52.2 23 -8.9 15.9
00:35 1018 30.06 847 25.01 11.2 52.1 24 -8.6 16.5
00:40 1018 30.06 847 25.01 11 51.8 25 -8.5 16.8
00:45 1018 30.06 847 25.01 11 51.7 26 -8 17.6
00:50 1018 30.06 848 25.04 10.8 51.4 26 -8.1 17.5
00:55 1018 30.06 848 25.04 10.7 51.2 26 -8.3 17.1
01:00 1018 30.06 847 25.01 10.7 51.3 25 -8.7 16.4
01:05 1018 30.06 847 25.01 10.9 51.7 25 -8.3 17
01:10 1018 30.06 847 25.01 11 51.8 24 -8.6 16.6
01:15 1018 30.06 847 25.01 11.1 51.9 24 -8.5 16.7
01:20 1018 30.06 847 25.01 11.1 52 24 -8.6 16.5
01:25 1018 30.06 847 25.01 11.1 51.9 25 -8.3 17.1
01:30 1018 30.06 847 25.01 11 51.7 25 -8.3 17.1
01:35 1018 30.06 847 25.01 10.9 51.6 25 -8.2 17.2
01:40 1018 30.06 847 25.01 10.8 51.5 26 -7.8 18
01:45 1018 30.06 847 25.01 10.8 51.4 25 -8.4 16.9
01:50 1018 30.06 847 25.01 10.8 51.5 24 -8.7 16.3
01:55 1018 30.06 847 25.01 11 51.8 24 -8.7 16.4
02:00 1018 30.06 847 25.01 11.1 51.9 24 -8.6 16.4
02:05 1018 30.06 847 25.01 11.1 52.1 23 -9.1 15.6
02:10 1018 30.06 847 25.01 11.2 52.2 23 -9 15.8
02:15 1018 30.06 847 25.01 11.2 52.1 23 -8.9 15.9
02:20 1018 30.06 847 25.01 11.2 52.1 24 -8.6 16.5
02:25 1018 30.06 847 25.01 11.1 51.9 24 -8.8 16.2
02:30 1018 30.06 847 25.01 11 51.8 25 -8.5 16.8
02:35 1018 30.06 847 25.01 10.9 51.6 24 -8.9 16
02:40 1018 30.06 847 25.01 11 51.9 23 -9.1 15.7
02:45 1018 30.06 847 25.01 11.2 52.2 23 -8.9 15.9
02:50 1018 30.06 847 25.01 11.2 52.2 24 -8.7 16.4
02:55 1018 30.06 847 25.01 11.2 52.1 24 -8.7 16.3
03:00 1018 30.06 847 25.01 11.1 52 24 -8.8 16.1
03:05 1018 30.06 847 25.01 11 51.8 24 -8.8 16.2
03:10 1018 30.06 847 25.01 11 51.8 24 -8.9 16
03:15 1018 30.06 847 25.01 11 51.8 25 -8.5 16.7
03:20 1018 30.06 847 25.01 11 51.9 24 -8.9 16
03:25 1018 30.06 847 25.01 11.1 51.9 24 -9 15.8
03:30 1018 30.06 847 25.01 11.1 52 24 -8.7 16.3
03:35 1018 30.06 847 25.01 11 51.9 24 -8.8 16.2
03:40 1018 30.06 847 25.01 11 51.9 24 -8.8 16.2
03:45 1018 30.06 847 25.01 11 51.8 24 -9 15.8
03:50 1018 30.06 847 25.01 11.1 52 23 -9.3 15.2
03:55 1018 30.06 847 25.01 11.4 52.4 23 -8.9 15.9
04:00 1018 30.06 847 25.01 11.3 52.4 23 -8.9 15.9
04:05 1018 30.06 847 25.01 11.3 52.3 23 -8.9 16
04:10 1018 30.06 847 25.01 11.3 52.3 23 -9 15.7
04:15 1018 30.06 847 25.01 11.3 52.3 24 -8.6 16.5
04:20 1018 30.06 847 25.01 11.3 52.3 24 -8.6 16.4
04:25 1018 30.06 847 25.01 11.2 52.1 24 -8.6 16.6
04:30 1018 30.06 847 25.01 11.1 52 24 -8.5 16.6
04:35 1018 30.06 847 25.01 11.2 52.1 24 -8.7 16.3
04:40 1018 30.06 847 25.01 11.2 52.2 25 -8.1 17.5
04:45 1018 30.06 847 25.01 11 51.8 26 -7.7 18.1
04:50 1018 30.06 847 25.01 10.3 50.6 29 -6.8 19.7
04:55 1018 30.06 847 25.01 9.8 49.6 29 -7.5 18.4
05:00 1018 30.06 847 25.01 9.9 49.9 28 -7.8 18
05:05 1018 30.06 847 25.01 9.9 49.9 27 -8.2 17.3
05:10 1018 30.06 847 25.01 10.3 50.5 27 -8 17.5
05:15 1018 30.06 847 25.01 10.5 50.9 27 -7.7 18.1
05:20 1018 30.06 847 25.01 10.5 50.9 27 -7.9 17.7
05:25 1018 30.06 847 25.01 10.5 50.9 27 -7.7 18.1
05:30 1018 30.06 847 25.01 10.5 50.9 27 -7.6 18.2
05:35 1018 30.06 847 25.01 10.5 50.9 27 -7.8 17.9
05:40 1018 30.06 847 25.01 10.5 50.9 27 -7.6 18.3
05:45 1018 30.06 847 25.01 10.5 50.9 27 -7.7 18.1
05:50 1018 30.06 847 25.01 10.5 50.8 28 -7.4 18.6
05:55 1018 30.06 847 25.01 10.4 50.6 28 -7.4 18.8
06:00 1018 30.06 847 25.01 10.3 50.5 29 -7.1 19.2
06:05 1018 30.06 847 25.01 9.9 49.8 32 -6 21.3
06:10 1018 30.06 847 25.01 8.9 48 33 -6.4 20.4
06:15 1018 30.06 847 25.01 8.8 47.8 32 -7.2 19.1
06:20 1018 30.06 847 25.01 9.4 48.9 28 -8.3 17.1
06:25 1018 30.06 848 25.04 9.9 49.8 28 -7.6 18.4
06:30 1018 30.06 848 25.04 10 50.1 28 -7.8 17.9
06:35 1018 30.06 848 25.04 10.1 50.2 28 -7.4 18.7
06:40 1018 30.06 848 25.04 9.9 49.9 29 -7.2 19
06:45 1018 30.06 848 25.04 9.7 49.5 29 -7.6 18.3
06:50 1018 30.06 848 25.04 9.9 49.7 29 -7.5 18.4
06:55 1018 30.06 848 25.04 9.9 49.9 29 -7.3 18.9
07:00 1019 30.09 848 25.04 9.9 49.8 29 -7.4 18.6
07:05 1019 30.09 848 25.04 9.9 49.9 29 -7.1 19.2
07:10 1018 30.06 848 25.04 9.7 49.4 30 -7.2 19
07:15 1018 30.06 848 25.04 9.6 49.3 30 -7.1 19.3
07:20 1018 30.06 848 25.04 9.7 49.5 30 -7 19.4
07:25 1019 30.09 848 25.04 9.5 49 31 -6.8 19.8
07:30 1019 30.09 848 25.04 9.3 48.7 31 -7.1 19.3
07:35 1019 30.09 848 25.04 9.6 49.2 29 -7.4 18.6
07:40 1019 30.09 848 25.04 9.9 49.9 28 -7.6 18.4
07:45 1019 30.09 848 25.04 10.1 50.2 30 -6.6 20.2
07:50 1019 30.09 848 25.04 9.9 49.7 30 -7.1 19.3
07:55 1019 30.09 848 25.04 10 50 32 -6.1 21
08:00 1019 30.09 848 25.04 9.7 49.5 31 -6.5 20.2
08:05 1019 30.09 848 25.04 9.6 49.3 32 -6.4 20.5
08:10 1019 30.09 848 25.04 9.6 49.4 32 -6.2 20.9
08:15 1019 30.09 848 25.04 9.5 49.1 32 -6.6 20.2
08:20 1019 30.09 848 25.04 9.5 49 32 -6.2 20.8
08:25 1019 30.09 848 25.04 9.6 49.2 33 -6.1 21.1
08:30 1019 30.09 848 25.04 9.5 49.1 33 -6 21.2
08:35 1019 30.09 848 25.04 9.5 49.1 34 -5.5 22.1
08:40 1019 30.09 848 25.04 9.3 48.7 34 -5.6 21.9
08:45 1019 30.09 848 25.04 9.1 48.4 34 -5.9 21.4
08:50 1019 30.09 848 25.04 9.2 48.6 35 -5.6 21.9
08:55 1019 30.09 848 25.04 9.4 48.9 34 -5.5 22.1
09:00 1019 30.09 848 25.04 9.4 49 34 -5.4 22.2
09:05 1019 30.09 848 25.04 9.6 49.3 32 -6.3 20.7
09:10 1019 30.09 848 25.04 9.8 49.7 33 -5.8 21.6
09:15 1019 30.09 848 25.04 10 50 32 -5.9 21.3
09:20 1019 30.09 848 25.04 10.4 50.7 34 -4.8 23.3
09:25 1019 30.09 848 25.04 10.3 50.6 30 -6.3 20.7
09:30 1019 30.09 848 25.04 10.5 50.9 35 -4.4 24.1
09:35 1019 30.09 848 25.04 10.4 50.7 34 -4.6 23.7
09:40 1019 30.09 848 25.04 10.5 50.9 34 -4.6 23.7
09:45 1019 30.09 848 25.04 10.6 51.1 35 -4.3 24.3
09:50 1019 30.09 848 25.04 10.8 51.5 35 -4.1 24.6
09:55 1019 30.09 848 25.04 11 51.8 34 -4.4 24.1
10:00 1019 30.09 848 25.04 11.1 52 31 -5.5 22.1
10:05 1019 30.09 848 25.04 11.4 52.5 32 -4.9 23.3
10:10 1019 30.09 848 25.04 11.9 53.3 29 -5.7 21.7
10:15 1019 30.09 848 25.04 12.4 54.3 26 -6.4 20.5
10:20 1019 30.09 848 25.04 12.7 54.9 26 -6.1 21.1
10:25 1019 30.09 848 25.04 12.7 54.8 26 -6.2 20.8
10:30 1019 30.09 848 25.04 12.7 54.8 26 -6.3 20.7
10:35 1019 30.09 848 25.04 12.9 55.1 26 -6.1 21
10:40 1019 30.09 848 25.04 13 55.5 25 -6.5 20.3
10:45 1019 30.09 848 25.04 13.1 55.5 26 -6 21.1
10:50 1019 30.09 848 25.04 13.1 55.6 25 -6.2 20.8
10:55 1019 30.09 848 25.04 13 55.4 26 -6.1 21
11:00 1019 30.09 848 25.04 13.1 55.6 26 -6.1 21
11:05 1019 30.09 848 25.04 13.3 56 25 -6.3 20.6
11:10 1019 30.09 848 25.04 13.6 56.4 25 -6.1 21.1
11:15 1019 30.09 848 25.04 13.5 56.2 25 -6.1 21
11:20 1019 30.09 848 25.04 13.7 56.6 25 -5.9 21.4
11:25 1019 30.09 848 25.04 13.7 56.6 25 -6.1 21
11:30 1019 30.09 848 25.04 14.1 57.3 24 -5.9 21.4
11:35 1019 30.09 848 25.04 14.2 57.6 24 -6.1 21.1
11:40 1019 30.09 848 25.04 13.9 57 25 -5.7 21.8
11:45 1019 30.09 848 25.04 13.7 56.6 24 -6.3 20.6
11:50 1019 30.09 848 25.04 13.9 57 24 -6.2 20.8
11:55 1019 30.09 848 25.04 14.1 57.5 23 -6.6 20.1
12:00 1019 30.09 848 25.04 14.2 57.5 23 -6.6 20.2
12:05 1018 30.06 848 25.04 14.1 57.3 22 -7.3 18.8
12:10 1018 30.06 848 25.04 13.8 56.8 22 -7.4 18.7
12:15 1018 30.06 848 25.04 13.5 56.3 22 -7.5 18.5
12:20 1018 30.06 848 25.04 13.3 56 24 -7 19.3
12:25 1018 30.06 847 25.01 13.4 56.1 24 -6.6 20.2
12:30 1018 30.06 847 25.01 13.1 55.6 25 -6.5 20.4
12:35 1018 30.06 847 25.01 12.8 55 24 -7.2 19.1
12:40 1018 30.06 847 25.01 12.9 55.2 25 -6.6 20.1
12:45 1018 30.06 847 25.01 13.1 55.6 25 -6.4 20.5
12:50 1018 30.06 847 25.01 13.1 55.7 26 -5.7 21.8
12:55 1018 30.06 847 25.01 13.1 55.5 25 -6.3 20.7
13:00 1018 30.06 847 25.01 13.1 55.6 26 -6.2 20.9
13:05 1018 30.06 847 25.01 13.2 55.7 25 -6.2 20.8
13:10 1018 30.06 847 25.01 13.2 55.8 25 -6.2 20.8
13:15 1018 30.06 847 25.01 13.3 55.9 26 -6 21.3
13:20 1018 30.06 847 25.01 13.3 55.9 25 -6.1 21.1
13:25 1018 30.06 847 25.01 13.3 55.9 25 -6.5 20.3
13:30 1018 30.06 847 25.01 13.5 56.3 23 -7 19.4
13:35 1018 30.06 847 25.01 13.5 56.2 24 -6.5 20.2
13:40 1018 30.06 847 25.01 13.5 56.3 23 -7.3 18.8
13:45 1018 30.06 847 25.01 13.4 56.2 23 -7.5 18.5
13:50 1018 30.06 847 25.01 13.3 55.9 24 -6.6 20.1
13:55 1018 30.06 847 25.01 13.3 55.9 23 -7.2 19.1
14:00 1018 30.06 847 25.01 13.2 55.7 24 -7 19.4
14:05 1018 30.06 847 25.01 13 55.5 23 -7.3 18.8
14:10 1018 30.06 847 25.01 12.9 55.2 24 -7 19.4
14:15 1018 30.06 847 25.01 13 55.5 24 -7.1 19.1
14:20 1018 30.06 847 25.01 13 55.5 25 -6.6 20.2
14:25 1018 30.06 847 25.01 13.1 55.5 26 -5.9 21.3
14:30 1018 30.06 847 25.01 12.9 55.2 26 -6.1 21
14:35 1018 30.06 847 25.01 12.6 54.7 26 -6.2 20.9
14:40 1018 30.06 847 25.01 12.5 54.6 27 -5.8 21.6
14:45 1018 30.06 847 25.01 12.5 54.4 28 -5.7 21.7
14:50 1018 30.06 847 25.01 12.5 54.4 28 -5.6 21.9
14:55 1018 30.06 847 25.01 12.5 54.6 28 -5.5 22.2
15:00 1017 30.03 847 25.01 12.6 54.7 28 -5.6 22
15:05 1017 30.03 847 25.01 12.6 54.7 28 -5.2 22.7
15:10 1017 30.03 847 25.01 12.6 54.8 26 -6.3 20.7
15:15 1017 30.03 847 25.01 12.6 54.8 27 -5.6 21.9
15:20 1017 30.03 847 25.01 12.6 54.6 30 -4.5 23.9
15:25 1017 30.03 847 25.01 12.5 54.4 30 -4.4 24
15:30 1017 30.03 847 25.01 12.4 54.2 31 -4.2 24.5
15:35 1017 30.03 847 25.01 12.5 54.5 30 -4.7 23.5
15:40 1017 30.03 847 25.01 12.6 54.6 30 -4.5 23.8
15:45 1017 30.03 846 24.98 12.7 54.9 29 -4.9 23.1
15:50 1017 30.03 846 24.98 12.8 55 30 -4.1 24.6
15:55 1017 30.03 846 24.98 12.6 54.7 31 -3.9 24.9
16:00 1017 30.03 847 25.01 12.5 54.5 31 -4.1 24.6
16:05 1017 30.03 847 25.01 12.4 54.3 32 -3.6 25.5
16:10 1017 30.03 847 25.01 12.3 54.2 32 -3.7 25.3
16:15 1017 30.03 847 25.01 12.1 53.9 31 -4.6 23.8
16:20 1017 30.03 847 25.01 12.1 53.7 31 -4.5 23.9
16:25 1017 30.03 846 24.98 12 53.6 31 -4.7 23.5
16:30 1017 30.03 846 24.98 12 53.6 31 -4.7 23.5
16:35 1017 30.03 846 24.98 12 53.5 29 -5.3 22.4
16:40 1017 30.03 846 24.98 11.9 53.5 29 -5.4 22.4
16:45 1017 30.03 846 24.98 11.9 53.4 30 -5.3 22.5
16:50 1017 30.03 846 24.98 11.9 53.4 30 -5.1 22.8
16:55 1017 30.03 846 24.98 11.9 53.4 29 -5.5 22.1
17:00 1017 30.03 846 24.98 12 53.6 30 -5 23.1
17:05 1017 30.03 846 24.98 11.9 53.4 31 -4.7 23.5
17:10 1017 30.03 846 24.98 11.7 53.1 31 -4.9 23.2
17:15 1017 30.03 846 24.98 11.6 52.9 30 -5.4 22.3
17:20 1017 30.03 846 24.98 11.7 53 29 -5.8 21.6
17:25 1017 30.03 846 24.98 11.8 53.2 30 -5.4 22.3
17:30 1017 30.03 846 24.98 11.9 53.3 27 -6.4 20.5
17:35 1017 30.03 846 24.98 12 53.6 27 -6.3 20.7
17:40 1017 30.03 846 24.98 12 53.6 28 -5.7 21.8
17:45 1017 30.03 846 24.98 11.9 53.3 27 -6.6 20.1
17:50 1017 30.03 846 24.98 11.9 53.4 27 -6.7 20
17:55 1017 30.03 846 24.98 11.9 53.3 29 -5.7 21.7
18:00 1017 30.03 846 24.98 11.4 52.5 30 -5.5 22.1
18:05 1017 30.03 846 24.98 10.9 51.5 30 -6.1 21.1
18:10 1017 30.03 846 24.98 11.1 51.9 32 -5 23
18:15 1017 30.03 847 25.01 10.8 51.5 33 -4.8 23.4
18:20 1017 30.03 847 25.01 10.8 51.5 36 -3.4 25.8
18:25 1017 30.03 847 25.01 10.8 51.4 35 -3.9 25
18:30 1017 30.03 847 25.01 10.6 51.1 40 -2.5 27.5
18:35 1017 30.03 847 25.01 10.3 50.5 33 -5.4 22.3
18:40 1017 30.03 847 25.01 10.6 51.1 33 -4.9 23.2
18:45 1018 30.06 847 25.01 10.5 50.9 38 -3.2 26.3
18:50 1018 30.06 847 25.01 10.1 50.2 35 -4.5 23.9
18:55 1018 30.06 847 25.01 10 50 37 -4 24.7
19:00 1018 30.06 847 25.01 9.9 49.9 37 -4 24.8
19:05 1018 30.06 847 25.01 9.8 49.7 38 -3.6 25.5
19:10 1018 30.06 847 25.01 9.7 49.5 41 -2.9 26.7
19:15 1018 30.06 847 25.01 9.3 48.8 41 -3.3 26
19:20 1018 30.06 847 25.01 9.4 49 38 -4.2 24.5
19:25 1018 30.06 847 25.01 9.6 49.2 40 -3.3 26.1
19:30 1018 30.06 847 25.01 9.3 48.7 40 -3.8 25.2
19:35 1018 30.06 847 25.01 9.2 48.6 38 -4.4 24.2
19:40 1018 30.06 847 25.01 9.6 49.3 38 -3.9 25
19:45 1018 30.06 847 25.01 9.5 49.1 39 -3.9 25
19:50 1018 30.06 847 25.01 9.5 49 40 -3.5 25.7
19:55 1018 30.06 847 25.01 9.2 48.6 42 -2.9 26.7
20:00 1018 30.06 847 25.01 8.9 47.9 41 -3.5 25.6
20:05 1018 30.06 847 25.01 9.1 48.3 40 -3.8 25.2
20:10 1018 30.06 847 25.01 9.3 48.8 39 -3.8 25.2
20:15 1018 30.06 847 25.01 9.4 48.8 38 -4.2 24.4
20:20 1018 30.06 847 25.01 9.7 49.4 36 -4.5 23.8
20:25 1018 30.06 847 25.01 10 50 36 -4.5 23.9
20:30 1018 30.06 847 25.01 10.2 50.4 36 -4.3 24.3
20:35 1017 30.03 847 25.01 10.2 50.3 37 -3.9 25
20:40 1017 30.03 847 25.01 10 50.1 37 -4 24.9
20:45 1017 30.03 847 25.01 9.9 49.9 38 -3.7 25.3
20:50 1017 30.03 847 25.01 9.8 49.7 38 -3.8 25.1
20:55 1017 30.03 847 25.01 9.7 49.5 39 -3.4 25.9
21:00 1017 30.03 847 25.01 9.5 49.1 40 -3.5 25.8
21:05 1017 30.03 847 25.01 9.4 48.8 39 -3.9 24.9
21:10 1017 30.03 847 25.01 9.5 49.1 38 -3.9 25
21:15 1017 30.03 847 25.01 9.6 49.3 38 -3.9 25
21:20 1017 30.03 847 25.01 9.6 49.3 39 -3.6 25.5
21:25 1018 30.06 847 25.01 9.5 49.1 38 -3.9 25
21:30 1018 30.06 847 25.01 9.6 49.4 38 -4 24.8
21:35 1018 30.06 847 25.01 9.8 49.7 36 -4.4 24
21:40 1018 30.06 847 25.01 10 50 36 -4.5 23.9
21:45 1018 30.06 847 25.01 10.2 50.4 34 -4.9 23.1
21:50 1018 30.06 847 25.01 10.7 51.2 33 -4.9 23.1
21:55 1018 30.06 847 25.01 10.8 51.4 33 -4.8 23.4
22:00 1018 30.06 847 25.01 10.6 51.1 33 -4.9 23.2
22:05 1018 30.06 847 25.01 10.5 50.9 34 -4.7 23.5
22:10 1018 30.06 847 25.01 10.2 50.4 35 -4.6 23.6
22:15 1018 30.06 847 25.01 10 50.1 35 -4.9 23.2
22:20 1017 30.03 847 25.01 10 50 35 -4.9 23.2
22:25 1017 30.03 847 25.01 10 49.9 35 -4.8 23.4
22:30 1017 30.03 847 25.01 9.9 49.7 35 -5 23.1
22:35 1017 30.03 847 25.01 9.9 49.7 35 -4.8 23.4
22:40 1017 30.03 847 25.01 9.7 49.5 37 -4.4 24.2
22:45 1017 30.03 847 25.01 9.4 48.9 38 -4.1 24.6
22:50 1017 30.03 847 25.01 9.1 48.5 38 -4.5 23.8
22:55 1017 30.03 847 25.01 9.2 48.5 37 -4.9 23.2
23:00 1017 30.03 846 24.98 9.3 48.7 36 -5 23.1
23:05 1017 30.03 847 25.01 9.4 48.9 36 -5.1 22.9
23:10 1017 30.03 846 24.98 9.5 49.1 36 -4.9 23.1
23:15 1017 30.03 847 25.01 9.5 49.2 35 -5 22.9
23:20 1017 30.03 847 25.01 9.5 49.1 36 -4.9 23.2
23:25 1017 30.03 847 25.01 9.3 48.8 36 -5.2 22.7
23:30 1017 30.03 847 25.01 9.3 48.7 36 -5.1 22.8
23:35 1017 30.03 847 25.01 9.2 48.5 36 -5.1 22.8
23:40 1017 30.03 847 25.01 9.2 48.5 36 -5.2 22.7
23:45 1018 30.06 847 25.01 9.1 48.5 37 -4.7 23.5
23:50 1018 30.06 847 25.01 9 48.2 38 -4.4 24.1
23:55 1018 30.06 847 25.01 8.9 48 38 -4.5 23.8
24:00 1018 30.06 847 25.01 8.8 47.8 39 -4.5 23.8